createdAt,value
2019-03-12T00:00:39.149Z,48.00
2019-03-12T00:03:07.624Z,47.90
2019-03-12T00:05:36.065Z,47.90
2019-03-12T00:08:04.688Z,47.80
2019-03-12T00:10:33.305Z,47.50
2019-03-12T00:13:01.759Z,47.30
2019-03-12T00:15:30.627Z,47.30
2019-03-12T00:17:59.069Z,47.00
2019-03-12T00:20:27.564Z,46.90
2019-03-12T00:22:56.378Z,46.90
2019-03-12T00:25:24.863Z,46.90
2019-03-12T00:27:53.466Z,46.80
2019-03-12T00:30:22.119Z,46.80
2019-03-12T00:32:50.559Z,46.80
2019-03-12T00:35:19.023Z,46.50
2019-03-12T00:37:47.484Z,46.30
2019-03-12T00:40:16.023Z,46.20
2019-03-12T00:42:44.655Z,46.10
2019-03-12T00:45:13.841Z,45.90
2019-03-12T00:47:42.451Z,45.70
2019-03-12T00:50:12.235Z,45.50
2019-03-12T00:52:41.065Z,45.50
2019-03-12T00:55:10.419Z,45.40
2019-03-12T00:57:38.889Z,45.10
2019-03-12T01:00:10.467Z,45.20
2019-03-12T01:02:38.937Z,45.20
2019-03-12T01:05:07.601Z,45.30
2019-03-12T01:07:36.079Z,45.40
2019-03-12T01:10:06.489Z,45.60
2019-03-12T01:12:35.107Z,45.60
2019-03-12T01:15:04.055Z,45.60
2019-03-12T01:17:33.055Z,45.50
2019-03-12T01:20:01.511Z,45.50
2019-03-12T01:22:29.991Z,45.50
2019-03-12T01:24:58.534Z,45.50
2019-03-12T01:27:26.957Z,45.50
2019-03-12T01:29:55.439Z,45.40
2019-03-12T01:32:23.893Z,45.30
2019-03-12T01:34:52.435Z,45.20
2019-03-12T01:37:20.888Z,45.20
2019-03-12T01:39:49.351Z,45.00
2019-03-12T01:42:17.809Z,44.90
2019-03-12T01:44:46.308Z,44.60
2019-03-12T01:47:14.789Z,44.30
2019-03-12T01:49:43.246Z,44.20
2019-03-12T01:52:11.718Z,44.00
2019-03-12T01:54:40.176Z,43.70
2019-03-12T01:57:08.737Z,43.60
2019-03-12T01:59:37.317Z,43.60
2019-03-12T02:02:05.791Z,43.40
2019-03-12T02:04:34.620Z,43.10
2019-03-12T02:07:03.087Z,43.00
2019-03-12T02:09:32.351Z,42.70
2019-03-12T02:12:00.965Z,42.10
2019-03-12T02:14:30.122Z,42.30
2019-03-12T02:16:58.715Z,42.30
2019-03-12T02:19:27.251Z,42.30
2019-03-12T02:21:55.980Z,42.00
2019-03-12T02:24:24.926Z,42.40
2019-03-12T02:26:53.377Z,42.30
2019-03-12T02:29:21.934Z,42.30
2019-03-12T02:31:50.638Z,41.70
2019-03-12T02:34:19.334Z,42.10
2019-03-12T02:36:48.178Z,41.90
2019-03-12T02:39:16.811Z,42.00
2019-03-12T02:41:45.344Z,41.90
2019-03-12T02:44:13.866Z,41.70
2019-03-12T02:46:42.350Z,41.60
2019-03-12T02:49:11.063Z,41.50
2019-03-12T02:51:39.534Z,41.50
2019-03-12T02:54:08.118Z,41.60
2019-03-12T02:56:36.582Z,41.50
2019-03-12T02:59:05.122Z,41.50
2019-03-12T03:01:33.777Z,41.50
2019-03-12T03:04:02.656Z,41.50
2019-03-12T03:06:32.836Z,41.50
2019-03-12T03:09:01.552Z,41.70
2019-03-12T03:11:30.155Z,41.70
2019-03-12T03:13:58.911Z,41.60
2019-03-12T03:16:27.375Z,41.60
2019-03-12T03:18:56.240Z,41.70
2019-03-12T03:21:24.700Z,41.80
2019-03-12T03:23:53.214Z,41.90
2019-03-12T03:26:21.678Z,42.10
2019-03-12T03:28:50.166Z,42.20
2019-03-12T03:31:18.675Z,42.30
2019-03-12T03:33:47.317Z,42.40
2019-03-12T03:36:15.840Z,42.50
2019-03-12T03:38:44.297Z,42.60
2019-03-12T03:41:12.953Z,42.60
2019-03-12T03:43:41.429Z,43.10
2019-03-12T03:46:09.956Z,42.80
2019-03-12T03:48:38.705Z,42.90
2019-03-12T03:51:07.235Z,42.90
2019-03-12T03:53:35.808Z,43.00
2019-03-12T03:56:04.424Z,43.20
2019-03-12T03:58:32.997Z,43.20
2019-03-12T04:01:01.444Z,43.20
2019-03-12T04:03:30.280Z,43.30
2019-03-12T04:05:58.822Z,43.30
2019-03-12T04:08:27.269Z,43.40
2019-03-12T04:10:55.934Z,43.40
2019-03-12T04:13:24.692Z,43.30
2019-03-12T04:15:53.210Z,43.30
2019-03-12T04:18:21.689Z,43.30
2019-03-12T04:20:50.768Z,43.40
2019-03-12T04:23:19.688Z,43.40
2019-03-12T04:25:48.236Z,43.40
2019-03-12T04:28:17.028Z,43.60
2019-03-12T04:30:45.561Z,43.60
2019-03-12T04:33:52.300Z,43.80
2019-03-12T04:36:20.857Z,43.80
2019-03-12T04:38:49.309Z,43.80
2019-03-12T04:41:17.791Z,43.80
2019-03-12T04:43:46.317Z,44.20
2019-03-12T04:46:14.791Z,44.20
2019-03-12T04:48:43.371Z,44.40
2019-03-12T04:51:11.897Z,44.00
2019-03-12T04:53:40.421Z,44.40
2019-03-12T04:56:08.910Z,44.50
2019-03-12T04:58:37.611Z,44.60
2019-03-12T05:01:06.261Z,44.60
2019-03-12T05:03:34.724Z,44.70
2019-03-12T05:06:03.283Z,44.70
2019-03-12T05:08:31.861Z,44.70
2019-03-12T05:11:00.584Z,44.80
2019-03-12T05:13:29.043Z,44.90
2019-03-12T05:15:57.525Z,44.90
2019-03-12T05:18:25.990Z,45.10
2019-03-12T05:20:54.501Z,45.10
2019-03-12T05:23:22.927Z,45.10
2019-03-12T05:25:51.428Z,45.20
2019-03-12T05:28:19.964Z,45.10
2019-03-12T05:30:48.455Z,45.00
2019-03-12T05:33:16.937Z,45.00
2019-03-12T05:35:45.451Z,45.00
2019-03-12T05:38:13.946Z,45.00
2019-03-12T05:40:42.407Z,45.00
2019-03-12T05:43:10.970Z,44.70
2019-03-12T05:45:39.422Z,44.90
2019-03-12T05:48:07.893Z,45.00
2019-03-12T05:50:36.359Z,45.00
2019-03-12T05:53:17.128Z,45.00
2019-03-12T05:55:45.577Z,45.00
2019-03-12T05:58:14.083Z,45.00
2019-03-12T06:00:42.609Z,45.10
2019-03-12T06:03:11.084Z,45.40
2019-03-12T06:05:39.705Z,45.00
2019-03-12T06:08:08.164Z,45.00
2019-03-12T06:10:36.654Z,44.90
2019-03-12T06:13:05.271Z,44.90
2019-03-12T06:15:33.788Z,44.70
2019-03-12T06:18:02.347Z,44.70
2019-03-12T06:20:30.937Z,44.40
2019-03-12T06:22:59.394Z,44.30
2019-03-12T06:25:27.880Z,44.40
2019-03-12T06:27:56.615Z,44.30
2019-03-12T06:30:29.624Z,43.90
2019-03-12T06:32:59.738Z,43.80
2019-03-12T06:35:29.854Z,43.60
2019-03-12T06:38:09.018Z,43.40
2019-03-12T06:40:41.845Z,43.30
2019-03-12T06:43:15.474Z,43.40
2019-03-12T06:45:48.254Z,43.50
2019-03-12T06:48:24.272Z,43.60
2019-03-12T06:51:10.570Z,43.60
2019-03-12T06:53:46.244Z,43.30
2019-03-12T06:56:32.594Z,43.50
2019-03-12T06:59:11.481Z,43.30
2019-03-12T07:01:47.158Z,43.20
2019-03-12T07:04:29.054Z,43.10
2019-03-12T07:07:01.002Z,43.00
2019-03-12T07:09:31.105Z,42.70
2019-03-12T07:12:01.242Z,42.50
2019-03-12T07:14:31.345Z,42.60
2019-03-12T07:17:01.476Z,42.70
2019-03-12T07:19:43.463Z,42.60
2019-03-12T07:22:28.566Z,42.30
2019-03-12T07:25:04.626Z,42.30
2019-03-12T07:27:37.448Z,42.40
2019-03-12T07:30:19.334Z,42.40
2019-03-12T07:32:58.382Z,42.40
2019-03-12T07:35:28.492Z,42.40
2019-03-12T07:38:16.727Z,42.20
2019-03-12T07:40:46.894Z,42.30
2019-03-12T07:43:19.603Z,42.10
2019-03-12T07:45:49.696Z,41.80
2019-03-12T07:48:19.816Z,41.70
2019-03-12T07:50:56.177Z,41.50
2019-03-12T07:53:26.284Z,41.80
2019-03-12T07:56:08.386Z,41.70
2019-03-12T07:58:44.285Z,41.40
2019-03-12T08:01:30.804Z,41.50
2019-03-12T08:04:00.901Z,41.30
2019-03-12T08:06:47.539Z,41.30
2019-03-12T08:09:17.628Z,40.70
2019-03-12T08:11:50.722Z,40.70
2019-03-12T08:14:26.618Z,40.20
2019-03-12T08:16:58.250Z,39.70
2019-03-12T08:19:44.710Z,40.10
2019-03-12T08:22:26.835Z,40.10
2019-03-12T08:24:56.960Z,39.90
2019-03-12T08:27:42.264Z,40.00
2019-03-12T08:30:13.096Z,39.60
2019-03-12T08:32:55.187Z,39.00
2019-03-12T08:35:25.293Z,38.80
2019-03-12T08:38:04.705Z,38.60
2019-03-12T08:40:34.805Z,38.40
2019-03-12T08:43:04.920Z,38.30
2019-03-12T08:45:50.086Z,38.00
2019-03-12T08:48:32.478Z,37.80
2019-03-12T08:51:05.560Z,37.30
2019-03-12T08:53:41.703Z,36.70
2019-03-12T08:56:14.645Z,36.10
2019-03-12T08:58:47.196Z,36.10
2019-03-12T09:01:26.081Z,36.10
2019-03-12T09:04:05.225Z,35.80
2019-03-12T09:06:44.546Z,35.20
2019-03-12T09:09:34.375Z,34.70
2019-03-12T09:12:20.807Z,33.40
2019-03-12T09:14:56.637Z,34.00
2019-03-12T09:17:26.735Z,34.20
2019-03-12T09:19:56.837Z,34.00
2019-03-12T09:22:26.971Z,33.80
2019-03-12T09:25:03.204Z,33.80
2019-03-12T09:27:51.643Z,33.90
2019-03-12T09:30:33.870Z,33.60
2019-03-12T09:33:03.965Z,33.20
2019-03-12T09:35:48.879Z,33.40
2019-03-12T09:38:27.879Z,33.10
2019-03-12T09:40:58.011Z,32.70
2019-03-12T09:43:40.395Z,32.30
2019-03-12T09:46:13.486Z,32.80
2019-03-12T09:48:43.592Z,33.20
2019-03-12T09:51:13.721Z,33.00
2019-03-12T09:54:00.214Z,33.20
2019-03-12T09:56:33.786Z,33.10
2019-03-12T09:59:03.917Z,33.10
2019-03-12T10:01:43.349Z,32.30
2019-03-12T10:04:13.663Z,32.70
2019-03-12T10:06:49.524Z,32.50
2019-03-12T10:09:25.362Z,32.50
2019-03-12T10:11:58.182Z,32.30
2019-03-12T10:14:28.312Z,32.00
2019-03-12T10:17:00.909Z,31.90
2019-03-12T10:19:36.967Z,32.20
2019-03-12T10:22:10.118Z,32.20
2019-03-12T10:24:55.309Z,31.70
2019-03-12T10:27:25.414Z,31.20
2019-03-12T10:29:55.607Z,31.60
2019-03-12T10:32:40.895Z,31.70
2019-03-12T10:35:22.673Z,30.90
2019-03-12T10:37:52.861Z,31.10
2019-03-12T10:40:32.078Z,30.80
2019-03-12T10:43:06.145Z,30.80
2019-03-12T10:45:39.031Z,31.20
2019-03-12T10:48:08.978Z,30.90
2019-03-12T10:50:37.519Z,30.50
2019-03-12T10:53:06.397Z,30.90
2019-03-12T10:55:35.143Z,31.00
2019-03-12T10:58:03.734Z,30.80
2019-03-12T11:00:32.258Z,30.90
2019-03-12T11:03:00.802Z,30.80
2019-03-12T11:05:29.360Z,31.20
2019-03-12T11:07:57.817Z,31.20
2019-03-12T11:10:26.544Z,31.20
2019-03-12T11:12:55.158Z,31.20
2019-03-12T11:15:24.007Z,30.40
2019-03-12T11:17:52.630Z,30.70
2019-03-12T11:20:27.971Z,30.40
2019-03-12T11:22:56.451Z,31.00
2019-03-12T11:25:27.712Z,30.80
2019-03-12T11:27:55.116Z,30.10
2019-03-12T11:30:23.576Z,30.30
2019-03-12T11:32:52.216Z,30.20
2019-03-12T11:35:20.677Z,30.50
2019-03-12T11:37:49.317Z,30.50
2019-03-12T11:40:23.325Z,30.40
2019-03-12T11:42:51.881Z,30.20
2019-03-12T11:45:31.064Z,29.80
2019-03-12T11:47:50.596Z,29.70
2019-03-12T11:50:21.469Z,29.50
2019-03-12T11:52:55.964Z,29.60
2019-03-12T11:55:20.489Z,29.80
2019-03-12T11:57:49.059Z,29.10
2019-03-12T12:00:30.112Z,29.50
2019-03-12T12:03:00.359Z,29.10
2019-03-12T12:05:29.094Z,29.20
2019-03-12T12:07:57.687Z,28.80
2019-03-12T12:10:26.548Z,29.50
2019-03-12T12:12:55.453Z,29.00
2019-03-12T12:15:24.000Z,28.70
2019-03-12T12:17:52.456Z,29.10
2019-03-12T12:20:29.590Z,29.50
2019-03-12T12:22:51.199Z,29.40
2019-03-12T12:25:20.536Z,29.40
2019-03-12T12:27:49.143Z,29.40
2019-03-12T12:30:24.282Z,29.70
2019-03-12T12:32:52.820Z,28.90
2019-03-12T12:35:21.338Z,28.40
2019-03-12T12:37:49.820Z,28.00
2019-03-12T12:40:19.416Z,27.90
2019-03-12T12:42:47.867Z,27.80
2019-03-12T12:45:21.790Z,28.20
2019-03-12T12:47:50.241Z,28.60
2019-03-12T12:50:18.726Z,28.60
2019-03-12T12:52:47.201Z,27.60
2019-03-12T12:55:15.862Z,27.20
2019-03-12T12:57:44.475Z,27.20
2019-03-12T13:00:23.633Z,26.80
2019-03-12T13:02:52.450Z,27.30
2019-03-12T13:05:21.145Z,27.60
2019-03-12T13:07:49.750Z,27.30
2019-03-12T13:10:21.374Z,27.20
2019-03-12T13:12:50.013Z,27.20
2019-03-12T13:15:18.641Z,26.90
2019-03-12T13:17:47.151Z,26.50
2019-03-12T13:20:16.147Z,26.40
2019-03-12T13:22:44.750Z,26.70
2019-03-12T13:25:19.660Z,26.60
2019-03-12T13:27:48.105Z,26.10
2019-03-12T13:30:19.661Z,26.40
2019-03-12T13:32:48.301Z,26.50
2019-03-12T13:35:18.445Z,26.70
2019-03-12T13:37:47.766Z,26.50
2019-03-12T13:40:21.425Z,26.30
2019-03-12T13:42:50.069Z,26.20
2019-03-12T13:45:23.594Z,26.20
2019-03-12T13:47:52.277Z,25.90
2019-03-12T13:50:21.216Z,26.20
2019-03-12T13:52:50.100Z,26.00
2019-03-12T13:55:18.754Z,26.00
2019-03-12T13:57:47.366Z,25.90
2019-03-12T14:00:21.550Z,26.20
2019-03-12T14:02:50.041Z,26.20
2019-03-12T14:05:18.699Z,26.40
2019-03-12T14:07:47.326Z,26.10
2019-03-12T14:10:23.891Z,25.80
2019-03-12T14:12:55.420Z,26.00
2019-03-12T14:15:34.733Z,26.00
2019-03-12T14:18:03.354Z,25.80
2019-03-12T14:20:46.210Z,25.40
2019-03-12T14:23:20.824Z,25.20
2019-03-12T14:25:50.167Z,25.40
2019-03-12T14:28:18.861Z,25.50
2019-03-12T14:30:47.322Z,25.10
2019-03-12T14:33:15.875Z,25.00
2019-03-12T14:35:52.034Z,25.00
2019-03-12T14:38:19.049Z,25.60
2019-03-12T14:40:47.955Z,25.30
2019-03-12T14:43:16.507Z,25.70
2019-03-12T14:45:49.265Z,25.10
2019-03-12T14:48:37.644Z,25.00
2019-03-12T14:51:12.237Z,24.80
2019-03-12T14:53:42.531Z,25.30
2019-03-12T14:56:11.075Z,25.30
2019-03-12T14:58:39.534Z,25.20
2019-03-12T15:01:08.013Z,25.10
2019-03-12T15:03:36.498Z,25.40
2019-03-12T15:06:05.168Z,25.10
2019-03-12T15:08:33.636Z,25.00
2019-03-12T15:11:02.091Z,24.90
2019-03-12T15:13:30.567Z,24.90
2019-03-12T15:15:59.064Z,25.10
2019-03-12T15:18:27.616Z,25.30
2019-03-12T15:20:56.162Z,25.30
2019-03-12T15:23:24.800Z,25.20
2019-03-12T15:25:53.301Z,25.50
2019-03-12T15:28:21.776Z,25.50
2019-03-12T15:30:50.237Z,25.40
2019-03-12T15:33:18.715Z,25.20
2019-03-12T15:35:47.239Z,25.30
2019-03-12T15:38:15.793Z,25.40
2019-03-12T15:40:44.248Z,25.20
2019-03-12T15:43:12.723Z,24.80
2019-03-12T15:45:41.243Z,24.70
2019-03-12T15:48:09.812Z,24.60
2019-03-12T15:50:38.342Z,24.80
2019-03-12T15:53:07.376Z,25.10
2019-03-12T15:55:36.043Z,24.90
2019-03-12T15:58:04.636Z,25.00
2019-03-12T16:00:33.111Z,24.80
2019-03-12T16:03:01.806Z,24.90
2019-03-12T16:05:30.280Z,25.00
2019-03-12T16:07:58.746Z,25.00
2019-03-12T16:10:27.374Z,24.80
2019-03-12T16:12:58.737Z,24.50
2019-03-12T16:15:27.343Z,24.80
2019-03-12T16:17:56.008Z,24.70
2019-03-12T16:20:24.479Z,25.30
2019-03-12T16:22:53.081Z,25.00
2019-03-12T16:25:21.546Z,25.20
2019-03-12T16:27:50.006Z,25.20
2019-03-12T16:30:19.606Z,25.30
2019-03-12T16:32:48.225Z,25.30
2019-03-12T16:35:16.763Z,25.30
2019-03-12T16:37:45.292Z,25.40
2019-03-12T16:40:18.766Z,25.50
2019-03-12T16:42:47.561Z,25.60
2019-03-12T16:45:20.313Z,25.50
2019-03-12T16:47:48.830Z,25.40
2019-03-12T16:50:18.058Z,25.80
2019-03-12T16:52:46.591Z,25.50
2019-03-12T16:55:18.842Z,25.60
2019-03-12T16:57:47.344Z,25.70
2019-03-12T17:00:19.965Z,25.70
2019-03-12T17:02:48.834Z,25.80
2019-03-12T17:05:17.304Z,25.80
2019-03-12T17:07:45.828Z,25.80
2019-03-12T17:10:18.517Z,25.70
2019-03-12T17:12:47.022Z,25.70
2019-03-12T17:15:23.000Z,25.80
2019-03-12T17:17:51.489Z,25.80
2019-03-12T17:20:19.947Z,25.90
2019-03-12T17:22:48.432Z,25.80
2019-03-12T17:25:16.877Z,25.90
2019-03-12T17:27:45.334Z,25.90
2019-03-12T17:30:23.956Z,25.90
2019-03-12T17:32:52.486Z,26.10
2019-03-12T17:35:38.200Z,26.00
2019-03-12T17:38:06.722Z,26.00
2019-03-12T17:40:35.304Z,26.00
2019-03-12T17:43:03.825Z,26.20
2019-03-12T17:45:32.360Z,26.20
2019-03-12T17:48:00.826Z,26.20
2019-03-12T17:50:30.649Z,26.20
2019-03-12T17:52:59.156Z,26.30
2019-03-12T17:55:28.161Z,26.30
2019-03-12T17:57:56.647Z,26.30
2019-03-12T18:00:28.205Z,26.30
2019-03-12T18:02:57.188Z,26.30
2019-03-12T18:05:25.736Z,26.30
2019-03-12T18:07:54.215Z,26.30
2019-03-12T18:10:22.680Z,26.40
2019-03-12T18:12:51.232Z,26.40
2019-03-12T18:15:20.830Z,26.40
2019-03-12T18:17:49.450Z,26.30
2019-03-12T18:20:24.322Z,26.30
2019-03-12T18:22:52.953Z,26.60
2019-03-12T18:25:33.149Z,26.30
2019-03-12T18:28:01.679Z,26.30
2019-03-12T18:30:30.232Z,26.30
2019-03-12T18:32:58.762Z,26.30
2019-03-12T18:35:27.318Z,26.60
2019-03-12T18:37:55.837Z,26.30
2019-03-12T18:40:26.623Z,26.30
2019-03-12T18:42:55.211Z,26.30
2019-03-12T18:45:28.954Z,26.70
2019-03-12T18:47:57.403Z,26.40
2019-03-12T18:50:25.924Z,26.50
2019-03-12T18:52:54.418Z,26.50
2019-03-12T18:55:37.827Z,26.60
2019-03-12T18:58:06.621Z,26.70
2019-03-12T19:00:36.081Z,26.80
2019-03-12T19:03:04.627Z,26.80
2019-03-12T19:05:33.078Z,26.90
2019-03-12T19:08:01.564Z,26.90
2019-03-12T19:10:30.017Z,26.90
2019-03-12T19:12:58.836Z,26.90
2019-03-12T19:15:27.370Z,26.90
2019-03-12T19:17:55.841Z,26.90
2019-03-12T19:20:24.317Z,26.80
2019-03-12T19:22:52.945Z,26.80
2019-03-12T19:25:29.761Z,26.80
2019-03-12T19:28:00.296Z,26.80
2019-03-12T19:30:28.601Z,26.80
2019-03-12T19:33:04.608Z,26.80
2019-03-12T19:35:33.630Z,26.90
2019-03-12T19:38:02.675Z,27.10
2019-03-12T19:40:49.125Z,26.80
2019-03-12T19:43:17.925Z,26.80
2019-03-12T19:45:46.551Z,26.90
2019-03-12T19:48:15.077Z,26.80
2019-03-12T19:50:43.703Z,26.90
2019-03-12T19:53:12.240Z,26.90
2019-03-12T19:55:43.858Z,26.80
2019-03-12T19:58:12.307Z,26.80
2019-03-12T20:00:40.795Z,26.80
2019-03-12T20:03:12.078Z,26.80
2019-03-12T20:05:39.730Z,26.80
2019-03-12T20:08:15.479Z,26.80
2019-03-12T20:11:15.940Z,27.20
2019-03-12T20:14:12.044Z,26.70
2019-03-12T20:16:46.792Z,26.80
2019-03-12T20:19:30.606Z,26.80
2019-03-12T20:22:35.605Z,26.80
2019-03-12T20:25:28.156Z,26.90
2019-03-12T20:28:14.820Z,26.90
2019-03-12T20:31:07.719Z,26.90
2019-03-12T20:33:57.455Z,26.90
2019-03-12T20:37:02.886Z,27.00
2019-03-12T20:40:07.924Z,27.00
2019-03-12T20:42:56.125Z,27.00
2019-03-12T20:45:39.868Z,27.00
2019-03-12T20:48:22.757Z,27.00
2019-03-12T20:51:15.197Z,27.10
2019-03-12T20:53:55.752Z,26.80
2019-03-12T20:57:00.885Z,27.10
2019-03-12T20:59:47.440Z,27.10
2019-03-12T21:02:27.632Z,27.30
2019-03-12T21:04:59.185Z,27.20
2019-03-12T21:07:53.435Z,27.20
2019-03-12T21:10:41.790Z,27.20
2019-03-12T21:13:30.311Z,27.20
2019-03-12T21:16:16.321Z,27.30
2019-03-12T21:19:16.929Z,27.30
2019-03-12T21:22:03.194Z,27.30
2019-03-12T21:24:42.186Z,27.30
2019-03-12T21:27:19.118Z,27.30
2019-03-12T21:29:48.222Z,27.30
2019-03-12T21:32:18.042Z,27.30
2019-03-12T21:34:46.994Z,27.30
2019-03-12T21:37:15.685Z,27.30
2019-03-12T21:39:54.635Z,27.30
2019-03-12T21:42:14.673Z,27.30
2019-03-12T21:44:43.315Z,27.30
2019-03-12T21:47:12.304Z,27.30
2019-03-12T21:49:40.903Z,27.30
2019-03-12T21:52:09.767Z,27.30
2019-03-12T21:54:38.253Z,27.30
2019-03-12T21:57:06.908Z,27.40
2019-03-12T21:59:35.426Z,27.50
2019-03-12T22:02:04.401Z,27.50
2019-03-12T22:04:32.961Z,27.60
2019-03-12T22:07:01.513Z,27.70
2019-03-12T22:09:30.422Z,27.70
2019-03-12T22:11:58.971Z,27.70
2019-03-12T22:14:27.436Z,27.70
2019-03-12T22:16:56.278Z,27.70
2019-03-12T22:19:24.752Z,27.40
2019-03-12T22:21:58.096Z,27.70
2019-03-12T22:24:26.560Z,27.60
2019-03-12T22:26:55.025Z,27.60
2019-03-12T22:29:23.501Z,27.50
2019-03-12T22:31:51.962Z,27.40
2019-03-12T22:34:20.434Z,27.40
2019-03-12T22:36:48.885Z,27.40
2019-03-12T22:39:17.375Z,27.40
2019-03-12T22:41:45.920Z,27.50
2019-03-12T22:44:14.400Z,27.50
2019-03-12T22:46:42.860Z,27.50
2019-03-12T22:49:11.361Z,27.50
2019-03-12T22:51:39.944Z,27.50
2019-03-12T22:54:08.451Z,27.30
2019-03-12T22:56:36.924Z,27.30
2019-03-12T22:59:05.467Z,27.50
2019-03-12T23:01:34.102Z,27.00
2019-03-12T23:04:02.660Z,27.00
2019-03-12T23:06:31.765Z,27.40
2019-03-12T23:09:00.311Z,27.10
2019-03-12T23:11:28.964Z,26.90
2019-03-12T23:13:57.497Z,27.30
2019-03-12T23:16:26.125Z,27.30
2019-03-12T23:18:54.587Z,27.40
2019-03-12T23:21:23.132Z,27.20
2019-03-12T23:23:51.649Z,27.50
2019-03-12T23:26:20.165Z,27.50
2019-03-12T23:28:48.623Z,27.60
2019-03-12T23:31:17.175Z,27.70
2019-03-12T23:33:45.709Z,27.70
2019-03-12T23:36:14.353Z,27.70
2019-03-12T23:38:43.274Z,27.70
2019-03-12T23:43:40.016Z,27.50
2019-03-12T23:46:08.471Z,27.80
2019-03-12T23:48:37.082Z,27.80
2019-03-12T23:51:05.835Z,27.70
2019-03-12T23:53:34.326Z,27.80
2019-03-12T23:56:03.009Z,27.70
2019-03-12T23:58:31.723Z,27.70
